Putney, South Dakota
Current Conditions -  °F | °C
As of 1:53 PM on Thursday 23 Oct 2014 (Local Time) from KABR Reporting Station
Clear Clear  
Wind Chill: 65°   Ceiling: Unl
Heat Index: 65°   Visibility: 10mi
Dew Point: 46°   Wind: 9mph
Humidity: 50%   Direction: 180°S
Pressure: 29.92"   Gusts: NA
Location:  45.4583°N, 98.1109°W
Report Text: KABR 231853Z AUTO 18008KT 10SM CLR 18/08 A2992 RMK AO2 SLP135 T01830078
Loading
Personal Weather Stations






























Interactive Weather Map
Tropical Storm Tracking
New forecast layout! Learn more

10-Day Weather Forecast

Advertisements
Track Severe Weather on mobile